createdAt,value
2018-03-28T00:00:37.730Z,98956.34
2018-03-28T00:03:39.712Z,98952.00
2018-03-28T00:06:41.714Z,98963.86
2018-03-28T00:09:42.974Z,98963.28
2018-03-28T00:12:44.249Z,98964.87
2018-03-28T00:15:45.502Z,98970.56
2018-03-28T00:18:46.804Z,98969.39
2018-03-28T00:21:48.087Z,98963.59
2018-03-28T00:24:49.355Z,98957.50
2018-03-28T00:27:50.616Z,98962.98
2018-03-28T00:30:51.879Z,98962.69
2018-03-28T00:33:53.134Z,98954.23
2018-03-28T00:36:54.367Z,98956.81
2018-03-28T00:39:55.659Z,98948.92
2018-03-28T00:42:56.884Z,98944.59
2018-03-28T00:45:58.963Z,98934.97
2018-03-28T00:49:00.268Z,98934.41
2018-03-28T00:52:01.569Z,98935.89
2018-03-28T00:55:03.613Z,98932.52
2018-03-28T00:58:04.895Z,98931.97
2018-03-28T01:01:06.163Z,98934.25
2018-03-28T01:04:07.458Z,98926.94
2018-03-28T01:07:08.729Z,98924.90
2018-03-28T01:10:10.009Z,98918.94
2018-03-28T01:13:11.264Z,98917.75
2018-03-28T01:16:12.559Z,98920.40
2018-03-28T01:19:13.864Z,98912.23
2018-03-28T01:22:15.868Z,98920.53
2018-03-28T01:25:17.126Z,98907.77
2018-03-28T01:28:18.537Z,98899.67
2018-03-28T01:31:19.943Z,98898.25
2018-03-28T01:34:21.176Z,98897.67
2018-03-28T01:37:22.425Z,98897.63
2018-03-28T01:40:23.704Z,98917.39
2018-03-28T01:43:24.962Z,98908.36
2018-03-28T01:46:26.220Z,98914.83
2018-03-28T01:49:27.938Z,98904.36
2018-03-28T01:52:29.209Z,98903.42
2018-03-28T01:55:30.441Z,98900.73
2018-03-28T01:58:32.420Z,98904.67
2018-03-28T02:01:34.444Z,98902.43
2018-03-28T02:04:35.727Z,98901.61
2018-03-28T02:07:36.991Z,98908.78
2018-03-28T02:10:38.244Z,98918.98
2018-03-28T02:13:39.476Z,98915.02
2018-03-28T02:16:47.845Z,98925.36
2018-03-28T02:19:49.107Z,98925.73
2018-03-28T02:22:50.387Z,98936.80
2018-03-28T02:25:51.619Z,98936.19
2018-03-28T02:28:52.879Z,98931.28
2018-03-28T02:31:54.173Z,98936.29
2018-03-28T02:34:56.179Z,98931.87
2018-03-28T02:37:58.160Z,98911.67
2018-03-28T02:41:00.168Z,98921.16
2018-03-28T02:44:01.460Z,98922.73
2018-03-28T02:47:02.763Z,98919.95
2018-03-28T02:50:04.039Z,98910.26
2018-03-28T02:53:06.068Z,98903.48
2018-03-28T02:56:07.327Z,98910.58
2018-03-28T02:59:08.619Z,98903.40
2018-03-28T03:02:09.939Z,98902.96
2018-03-28T03:05:11.159Z,98899.88
2018-03-28T03:08:12.439Z,98904.20
2018-03-28T03:11:14.438Z,98908.38
2018-03-28T03:14:15.689Z,98917.91
2018-03-28T03:17:17.714Z,98899.41
2018-03-28T03:20:18.996Z,98898.98
2018-03-28T03:23:20.291Z,98891.67
2018-03-28T03:26:22.287Z,98905.23
2018-03-28T03:29:23.538Z,98906.33
2018-03-28T03:32:25.554Z,98906.10
2018-03-28T03:35:26.812Z,98901.20
2018-03-28T03:38:28.105Z,98896.37
2018-03-28T03:41:29.370Z,98889.45
2018-03-28T03:44:30.631Z,98887.88
2018-03-28T03:47:32.610Z,98885.03
2018-03-28T03:50:33.921Z,98891.01
2018-03-28T03:53:35.916Z,98893.45
2018-03-28T03:56:37.183Z,98904.61
2018-03-28T03:59:38.473Z,98911.17
2018-03-28T04:02:39.751Z,98917.19
2018-03-28T04:05:41.004Z,98917.58
2018-03-28T04:08:42.271Z,98915.44
2018-03-28T04:11:43.503Z,98906.68
2018-03-28T04:14:44.767Z,98913.88
2018-03-28T04:17:46.024Z,98917.02
2018-03-28T04:20:47.286Z,98920.02
2018-03-28T04:23:49.602Z,98917.69
2018-03-28T04:26:50.862Z,98929.06
2018-03-28T04:29:52.155Z,98925.06
2018-03-28T04:32:53.396Z,98923.97
2018-03-28T04:35:54.660Z,98917.84
2018-03-28T04:38:55.923Z,98920.56
2018-03-28T04:41:57.908Z,98922.85
2018-03-28T04:44:59.891Z,98918.84
2018-03-28T04:48:01.155Z,98915.49
2018-03-28T04:51:02.626Z,98916.03
2018-03-28T04:54:03.856Z,98915.59
2018-03-28T04:57:05.118Z,98914.07
2018-03-28T05:00:06.357Z,98915.65
2018-03-28T05:03:08.379Z,98915.83
2018-03-28T05:06:09.659Z,98913.59
2018-03-28T05:09:10.935Z,98913.67
2018-03-28T05:12:12.188Z,98913.47
2018-03-28T05:15:13.555Z,98925.98
2018-03-28T05:18:14.819Z,98928.34
2018-03-28T05:21:16.106Z,98924.70
2018-03-28T05:24:17.312Z,98915.85
2018-03-28T05:27:18.736Z,98925.84
2018-03-28T05:30:20.720Z,98929.55
2018-03-28T05:33:22.762Z,98934.28
2018-03-28T05:36:24.759Z,98932.41
2018-03-28T05:39:26.021Z,98946.08
2018-03-28T05:42:27.320Z,98935.81
2018-03-28T05:45:29.350Z,98938.62
2018-03-28T05:48:30.624Z,98945.23
2018-03-28T05:51:31.982Z,98936.84
2018-03-28T05:54:33.308Z,98942.05
2018-03-28T05:57:35.252Z,98933.18
2018-03-28T06:00:36.538Z,98948.09
2018-03-28T06:03:38.535Z,98939.23
2018-03-28T06:06:39.783Z,98940.36
2018-03-28T06:09:41.789Z,98938.95
2018-03-28T06:12:43.028Z,98944.30
2018-03-28T06:15:45.070Z,98938.16
2018-03-28T06:18:46.314Z,98946.66
2018-03-28T06:21:47.597Z,98947.85
2018-03-28T06:24:48.847Z,98950.02
2018-03-28T06:27:50.100Z,98944.69
2018-03-28T06:30:51.414Z,98956.10
2018-03-28T06:33:53.380Z,98941.70
2018-03-28T06:36:54.651Z,98950.37
2018-03-28T06:39:56.633Z,98950.19
2018-03-28T06:42:58.622Z,98951.06
2018-03-28T06:46:00.651Z,98942.87
2018-03-28T06:49:01.898Z,98947.06
2018-03-28T06:52:03.208Z,98945.80
2018-03-28T06:55:04.470Z,98949.07
2018-03-28T06:58:05.764Z,98937.55
2018-03-28T07:01:07.762Z,98931.02
2018-03-28T07:04:08.980Z,98935.09
2018-03-28T07:07:10.241Z,98936.89
2018-03-28T07:10:11.587Z,98927.73
2018-03-28T07:13:12.817Z,98942.61
2018-03-28T07:16:14.070Z,98933.55
2018-03-28T07:19:15.355Z,98934.84
2018-03-28T07:22:16.617Z,98928.42
2018-03-28T07:25:17.908Z,98926.34
2018-03-28T07:28:19.163Z,98926.01
2018-03-28T07:31:20.416Z,98925.83
2018-03-28T07:34:21.728Z,98916.13
2018-03-28T07:37:23.704Z,98917.06
2018-03-28T07:40:25.695Z,98920.88
2018-03-28T07:43:27.715Z,98922.84
2018-03-28T07:46:28.979Z,98927.06
2018-03-28T07:49:30.248Z,98923.75
2018-03-28T07:52:31.513Z,98926.22
2018-03-28T07:55:32.754Z,98928.41
2018-03-28T07:58:34.126Z,98922.02
2018-03-28T08:01:36.099Z,98924.34
2018-03-28T08:07:54.399Z,98911.98
2018-03-28T08:10:55.658Z,98905.73
2018-03-28T08:13:56.907Z,98914.70
2018-03-28T08:16:58.174Z,98913.04
2018-03-28T08:19:59.408Z,98897.75
2018-03-28T08:23:00.663Z,98888.14
2018-03-28T08:26:01.904Z,98893.13
2018-03-28T08:29:03.164Z,98899.42
2018-03-28T08:32:04.408Z,98893.44
2018-03-28T08:35:05.697Z,98886.42
2018-03-28T08:38:06.951Z,98888.78
2018-03-28T08:41:08.202Z,98891.47
2018-03-28T08:44:09.437Z,98896.33
2018-03-28T08:47:11.427Z,98891.14
2018-03-28T08:50:12.675Z,98893.33
2018-03-28T08:53:14.687Z,98885.56
2018-03-28T08:56:15.929Z,98884.80
2018-03-28T08:59:17.182Z,98884.65
2018-03-28T09:02:19.201Z,98883.32
2018-03-28T09:05:20.544Z,98883.30
2018-03-28T09:08:21.798Z,98880.00
2018-03-28T09:11:23.074Z,98879.79
2018-03-28T09:14:24.371Z,98876.51
2018-03-28T09:17:25.651Z,98873.88
2018-03-28T09:20:26.922Z,98878.58
2018-03-28T09:23:28.159Z,98868.88
2018-03-28T09:26:29.494Z,98860.46
2018-03-28T09:29:30.774Z,98854.00
2018-03-28T09:32:32.023Z,98858.30
2018-03-28T09:35:33.268Z,98860.28
2018-03-28T09:38:34.514Z,98842.13
2018-03-28T09:41:36.505Z,98840.58
2018-03-28T09:44:38.540Z,98835.78
2018-03-28T09:47:39.806Z,98840.08
2018-03-28T09:50:41.067Z,98844.07
2018-03-28T09:53:42.287Z,98840.06
2018-03-28T09:56:43.565Z,98850.70
2018-03-28T09:59:44.827Z,98840.16
2018-03-28T10:02:46.099Z,98845.06
2018-03-28T10:05:47.401Z,98841.41
2018-03-28T10:08:48.698Z,98843.11
2018-03-28T10:11:49.918Z,98823.95
2018-03-28T10:14:51.241Z,98830.79
2018-03-28T10:17:52.490Z,98837.64
2018-03-28T10:21:00.699Z,98839.28
2018-03-28T10:24:02.692Z,98839.05
2018-03-28T10:27:04.695Z,98832.02
2018-03-28T10:30:05.959Z,98832.06
2018-03-28T10:33:07.244Z,98834.94
2018-03-28T10:36:08.514Z,98831.19
2018-03-28T10:39:09.770Z,98819.84
2018-03-28T10:42:11.035Z,98818.31
2018-03-28T10:45:12.254Z,98817.08
2018-03-28T10:48:14.236Z,98809.70
2018-03-28T10:51:16.253Z,98798.06
2018-03-28T10:54:17.538Z,98790.92
2018-03-28T10:57:18.803Z,98790.55
2018-03-28T11:00:20.072Z,98794.53
2018-03-28T11:03:21.332Z,98792.91
2018-03-28T11:06:22.629Z,98785.33
2018-03-28T11:09:24.659Z,98774.11
2018-03-28T11:12:25.943Z,98768.31
2018-03-28T11:15:27.211Z,98764.90
2018-03-28T11:18:28.459Z,98752.70
2018-03-28T11:21:29.707Z,98755.92
2018-03-28T11:24:30.967Z,98757.88
2018-03-28T11:27:32.198Z,98749.72
2018-03-28T11:30:33.460Z,98740.21
2018-03-28T11:33:34.708Z,98739.15
2018-03-28T11:36:36.788Z,98728.13
2018-03-28T11:39:38.822Z,98720.30
2018-03-28T11:42:40.109Z,98707.70
2018-03-28T11:45:41.367Z,98697.11
2018-03-28T11:48:42.626Z,98692.28
2018-03-28T11:51:43.874Z,98689.80
2018-03-28T11:54:45.171Z,98685.34
2018-03-28T11:57:46.515Z,98680.44
2018-03-28T12:00:47.787Z,98681.47
2018-03-28T12:03:49.043Z,98677.27
2018-03-28T12:06:50.311Z,98659.87
2018-03-28T12:09:51.555Z,98651.49
2018-03-28T12:12:52.834Z,98648.35
2018-03-28T12:15:54.100Z,98641.91
2018-03-28T12:18:55.363Z,98633.16
2018-03-28T12:21:56.599Z,98623.71
2018-03-28T12:24:57.843Z,98611.64
2018-03-28T12:27:59.147Z,98611.06
2018-03-28T12:31:00.438Z,98602.44
2018-03-28T12:34:01.769Z,98593.80
2018-03-28T12:37:03.039Z,98580.88
2018-03-28T12:40:04.359Z,98582.30
2018-03-28T12:43:05.607Z,98571.77
2018-03-28T12:46:07.624Z,98572.41
2018-03-28T12:49:08.876Z,98565.78
2018-03-28T12:52:17.264Z,98566.66
2018-03-28T12:55:18.540Z,98550.23
2018-03-28T12:58:19.722Z,98535.29
2018-03-28T13:01:20.971Z,98524.06
2018-03-28T13:04:22.966Z,98512.45
2018-03-28T13:07:24.224Z,98521.02
2018-03-28T13:10:26.247Z,98515.63
2018-03-28T13:13:27.505Z,98498.98
2018-03-28T13:16:28.793Z,98506.42
2018-03-28T13:19:30.050Z,98481.73
2018-03-28T13:22:31.319Z,98479.68
2018-03-28T13:25:32.696Z,98473.38
2018-03-28T13:28:33.952Z,98470.34
2018-03-28T13:31:35.268Z,98464.57
2018-03-28T13:34:36.587Z,98462.17
2018-03-28T13:37:37.873Z,98454.99
2018-03-28T13:40:39.904Z,98455.94
2018-03-28T13:43:41.159Z,98444.45
2018-03-28T13:46:42.412Z,98445.54
2018-03-28T13:49:43.648Z,98435.38
2018-03-28T13:52:45.660Z,98427.23
2018-03-28T13:55:46.914Z,98428.38
2018-03-28T13:58:48.157Z,98414.45
2018-03-28T14:01:50.197Z,98394.42
2018-03-28T14:04:51.461Z,98395.85
2018-03-28T14:07:52.683Z,98388.08
2018-03-28T14:10:54.385Z,98382.16
2018-03-28T14:13:55.678Z,98378.98
2018-03-28T14:16:56.967Z,98379.16
2018-03-28T14:19:58.295Z,98368.53
2018-03-28T14:22:59.586Z,98364.43
2018-03-28T14:26:01.599Z,98361.69
2018-03-28T14:29:02.885Z,98353.84
2018-03-28T14:32:04.172Z,98345.47
2018-03-28T14:35:05.436Z,98353.42
2018-03-28T14:38:06.671Z,98360.84
2018-03-28T14:41:07.957Z,98360.02
2018-03-28T14:44:16.121Z,98357.14
2018-03-28T14:47:17.385Z,98342.38
2018-03-28T14:50:18.685Z,98338.33
2018-03-28T14:53:19.955Z,98331.20
2018-03-28T14:56:21.217Z,98312.62
2018-03-28T14:59:22.470Z,98305.06
2018-03-28T15:02:23.727Z,98293.67
2018-03-28T15:05:24.995Z,98290.03
2018-03-28T15:08:26.313Z,98294.25
2018-03-28T15:11:28.329Z,98282.02
2018-03-28T15:14:29.628Z,98278.94
2018-03-28T15:17:30.905Z,98266.45
2018-03-28T15:20:32.161Z,98249.47
2018-03-28T15:23:33.419Z,98255.47
2018-03-28T15:26:34.697Z,98239.15
2018-03-28T15:29:35.987Z,98233.75
2018-03-28T15:32:37.275Z,98220.24
2018-03-28T15:35:38.558Z,98214.48
2018-03-28T15:38:39.830Z,98200.72
2018-03-28T15:41:41.110Z,98182.33
2018-03-28T15:44:42.401Z,98180.92
2018-03-28T15:47:44.435Z,98157.26
2018-03-28T15:50:45.706Z,98149.64
2018-03-28T15:53:47.003Z,98141.73
2018-03-28T15:56:48.995Z,98125.88
2018-03-28T15:59:51.003Z,98118.09
2018-03-28T16:02:52.240Z,98110.28
2018-03-28T16:05:54.291Z,98103.09
2018-03-28T16:08:56.290Z,98095.13
2018-03-28T16:11:58.383Z,98074.17
2018-03-28T16:14:59.663Z,98056.66
2018-03-28T16:18:00.994Z,98040.88
2018-03-28T16:21:02.275Z,98047.91
2018-03-28T16:24:04.353Z,98064.03
2018-03-28T16:27:05.580Z,98056.66
2018-03-28T16:30:06.895Z,98076.20
2018-03-28T16:33:08.148Z,98071.36
2018-03-28T16:36:10.170Z,98063.13
2018-03-28T16:39:11.410Z,98053.62
2018-03-28T16:42:12.694Z,98042.75
2018-03-28T16:45:13.985Z,98050.41
2018-03-28T16:48:15.409Z,98045.81
2018-03-28T16:51:16.708Z,98028.88
2018-03-28T16:54:17.950Z,98026.17
2018-03-28T16:57:19.192Z,98023.34
2018-03-28T17:00:20.455Z,98011.25
2018-03-28T17:03:23.212Z,98012.67
2018-03-28T17:06:25.688Z,98006.33
2018-03-28T17:09:27.302Z,97997.81
2018-03-28T17:12:28.604Z,97993.86
2018-03-28T17:15:30.206Z,97984.13
2018-03-28T17:18:32.256Z,97974.88
2018-03-28T17:21:33.989Z,97961.13
2018-03-28T17:24:35.269Z,97961.58
2018-03-28T17:27:36.523Z,97965.55
2018-03-28T17:30:37.886Z,97961.70
2018-03-28T17:33:39.867Z,97952.61
2018-03-28T17:36:41.142Z,97946.95
2018-03-28T17:39:42.414Z,97941.66
2018-03-28T17:42:43.679Z,97928.61
2018-03-28T17:45:44.938Z,97914.62
2018-03-28T17:48:46.225Z,97919.13
2018-03-28T17:51:47.518Z,97917.06
2018-03-28T17:54:48.800Z,97902.72
2018-03-28T17:57:50.796Z,97918.74
2018-03-28T18:00:52.075Z,97905.55
2018-03-28T18:03:53.339Z,97905.30
2018-03-28T18:06:54.662Z,97906.55
2018-03-28T18:09:55.921Z,97897.67
2018-03-28T18:12:57.252Z,97897.44
2018-03-28T18:19:29.195Z,97901.88
2018-03-28T18:22:31.813Z,97918.50
2018-03-28T18:25:33.118Z,97917.45
2018-03-28T18:28:34.403Z,97966.98
2018-03-28T18:31:35.696Z,97928.23
2018-03-28T18:34:38.407Z,97943.59
2018-03-28T18:37:39.726Z,97936.63
2018-03-28T18:40:41.479Z,97938.75
2018-03-28T18:43:42.768Z,97929.72
2018-03-28T18:46:44.029Z,97950.19
2018-03-28T18:49:46.120Z,97955.05
2018-03-28T18:52:47.457Z,97957.00
2018-03-28T18:55:48.763Z,97942.11
2018-03-28T18:58:51.179Z,97937.30
2018-03-28T19:01:53.247Z,97935.83
2018-03-28T19:04:55.449Z,97940.73
2018-03-28T19:07:56.799Z,97952.71
2018-03-28T19:10:59.400Z,97952.17
2018-03-28T19:14:01.916Z,97959.77
2018-03-28T19:17:05.416Z,97971.69
2018-03-28T19:20:08.327Z,97980.44
2018-03-28T19:23:10.185Z,97983.32
2018-03-28T19:26:12.076Z,98003.94
2018-03-28T19:29:14.529Z,98074.66
2018-03-28T19:32:16.630Z,98084.84
2018-03-28T19:35:18.423Z,98117.92
2018-03-28T19:38:21.134Z,98146.52
2018-03-28T19:41:22.533Z,98181.39
2018-03-28T19:44:24.139Z,98170.63
2018-03-28T19:47:26.653Z,98190.62
2018-03-28T19:50:29.276Z,98203.28
2018-03-28T19:53:30.990Z,98218.37
2018-03-28T19:56:32.587Z,98232.76
2018-03-28T19:59:34.357Z,98248.17
2018-03-28T20:02:36.541Z,98270.66
2018-03-28T20:05:39.052Z,98275.20
2018-03-28T20:08:40.397Z,98277.35
2018-03-28T20:11:43.101Z,98295.79
2018-03-28T20:14:45.681Z,98297.95
2018-03-28T20:17:48.304Z,98311.92
2018-03-28T20:20:49.598Z,98300.24
2018-03-28T20:23:50.992Z,98309.83
2018-03-28T20:26:53.147Z,98334.05
2018-03-28T20:29:54.787Z,98348.84
2018-03-28T20:32:56.855Z,98348.20
2018-03-28T20:35:58.854Z,98365.42
2018-03-28T20:39:00.163Z,98371.98
2018-03-28T20:42:01.429Z,98382.63
2018-03-28T20:45:02.700Z,98389.41
2018-03-28T20:48:03.990Z,98385.87
2018-03-28T20:51:05.971Z,98388.77
2018-03-28T20:54:08.068Z,98404.70
2018-03-28T20:57:09.342Z,98407.32
2018-03-28T21:00:10.587Z,98406.80
2018-03-28T21:03:12.582Z,98420.80
2018-03-28T21:06:13.866Z,98420.22
2018-03-28T21:09:15.175Z,98456.37
2018-03-28T21:12:16.556Z,98437.86
2018-03-28T21:15:18.571Z,98466.73
2018-03-28T21:18:19.862Z,98480.41
2018-03-28T21:21:21.168Z,98482.61
2018-03-28T21:24:23.211Z,98487.52
2018-03-28T21:27:24.481Z,98488.20
2018-03-28T21:30:25.743Z,98500.64
2018-03-28T21:33:27.010Z,98496.45
2018-03-28T21:36:28.422Z,98514.74
2018-03-28T21:39:30.128Z,98522.95
2018-03-28T21:42:31.579Z,98532.91
2018-03-28T21:45:33.379Z,98541.38
2018-03-28T21:48:34.711Z,98554.16
2018-03-28T21:51:36.002Z,98545.69
2018-03-28T21:54:37.319Z,98560.66
2018-03-28T21:57:39.344Z,98572.76
2018-03-28T22:00:40.615Z,98581.77
2018-03-28T22:03:41.890Z,98592.72
2018-03-28T22:06:43.911Z,98584.33
2018-03-28T22:09:45.902Z,98613.05
2018-03-28T22:12:47.174Z,98619.91
2018-03-28T22:15:48.500Z,98612.95
2018-03-28T22:18:49.857Z,98624.56
2018-03-28T22:21:51.133Z,98627.06
2018-03-28T22:24:52.432Z,98640.66
2018-03-28T22:27:53.733Z,98638.92
2018-03-28T22:30:55.045Z,98651.92
2018-03-28T22:33:56.307Z,98654.30
2018-03-28T22:36:58.353Z,98656.40
2018-03-28T22:39:59.636Z,98659.19
2018-03-28T22:43:01.663Z,98669.48
2018-03-28T22:46:02.977Z,98675.67
2018-03-28T22:49:04.976Z,98675.89
2018-03-28T22:52:07.048Z,98687.50
2018-03-28T22:55:08.375Z,98707.04
2018-03-28T22:58:09.698Z,98705.86
2018-03-28T23:01:10.994Z,98711.78
2018-03-28T23:04:12.306Z,98716.22
2018-03-28T23:07:14.308Z,98728.16
2018-03-28T23:10:15.551Z,98723.28
2018-03-28T23:13:17.562Z,98726.06
2018-03-28T23:19:27.588Z,98737.77
2018-03-28T23:22:37.802Z,98747.95
2018-03-28T23:25:46.692Z,98743.59
2018-03-28T23:28:47.936Z,98741.06
2018-03-28T23:31:49.214Z,98744.58
2018-03-28T23:34:50.506Z,98746.75
2018-03-28T23:37:51.834Z,98752.91
2018-03-28T23:40:53.086Z,98767.73
2018-03-28T23:43:54.372Z,98767.19
2018-03-28T23:46:55.671Z,98763.12
2018-03-28T23:49:56.983Z,98772.03
2018-03-28T23:52:58.302Z,98769.72
2018-03-28T23:55:59.539Z,98778.14
2018-03-28T23:59:00.790Z,98778.30
